sensor_id;sensor_type;location;lat;lon;timestamp;P1;durP1;ratioP1;P2;durP2;ratioP2
4694;SDS011;2361;49.540;8.390;2023-05-23T00:01:40;33.97;;;13.30;;
4694;SDS011;2361;49.540;8.390;2023-05-23T00:04:08;24.57;;;12.53;;
4694;SDS011;2361;49.540;8.390;2023-05-23T00:06:35;22.10;;;12.27;;
4694;SDS011;2361;49.540;8.390;2023-05-23T00:09:04;21.33;;;11.43;;
4694;SDS011;2361;49.540;8.390;2023-05-23T00:11:31;27.67;;;11.10;;
4694;SDS011;2361;49.540;8.390;2023-05-23T00:13:58;27.13;;;12.13;;
4694;SDS011;2361;49.540;8.390;2023-05-23T00:16:26;27.73;;;13.80;;
4694;SDS011;2361;49.540;8.390;2023-05-23T00:18:53;27.50;;;11.80;;
4694;SDS011;2361;49.540;8.390;2023-05-23T00:21:22;26.90;;;11.33;;
4694;SDS011;2361;49.540;8.390;2023-05-23T00:23:49;26.40;;;11.00;;
4694;SDS011;2361;49.540;8.390;2023-05-23T00:26:16;21.57;;;9.87;;
4694;SDS011;2361;49.540;8.390;2023-05-23T00:28:43;24.50;;;12.00;;
4694;SDS011;2361;49.540;8.390;2023-05-23T00:31:10;27.03;;;11.47;;
4694;SDS011;2361;49.540;8.390;2023-05-23T00:33:37;30.20;;;11.33;;
4694;SDS011;2361;49.540;8.390;2023-05-23T00:36:04;19.20;;;9.93;;
4694;SDS011;2361;49.540;8.390;2023-05-23T00:38:31;27.47;;;12.47;;
4694;SDS011;2361;49.540;8.390;2023-05-23T00:40:58;26.73;;;12.47;;
4694;SDS011;2361;49.540;8.390;2023-05-23T00:43:26;25.73;;;11.10;;
4694;SDS011;2361;49.540;8.390;2023-05-23T00:45:54;19.90;;;9.97;;
4694;SDS011;2361;49.540;8.390;2023-05-23T00:48:21;20.53;;;10.30;;
4694;SDS011;2361;49.540;8.390;2023-05-23T00:50:50;22.17;;;10.27;;
4694;SDS011;2361;49.540;8.390;2023-05-23T00:53:17;17.90;;;8.47;;
4694;SDS011;2361;49.540;8.390;2023-05-23T00:55:44;23.77;;;11.83;;
4694;SDS011;2361;49.540;8.390;2023-05-23T00:58:11;19.93;;;9.50;;
4694;SDS011;2361;49.540;8.390;2023-05-23T01:00:41;16.97;;;8.07;;
4694;SDS011;2361;49.540;8.390;2023-05-23T01:03:10;24.17;;;10.00;;
4694;SDS011;2361;49.540;8.390;2023-05-23T01:05:43;26.80;;;11.40;;
4694;SDS011;2361;49.540;8.390;2023-05-23T01:08:10;17.30;;;9.57;;
4694;SDS011;2361;49.540;8.390;2023-05-23T01:10:37;20.53;;;9.53;;
4694;SDS011;2361;49.540;8.390;2023-05-23T01:18:44;16.50;;;8.50;;
4694;SDS011;2361;49.540;8.390;2023-05-23T01:21:23;20.60;;;11.47;;
4694;SDS011;2361;49.540;8.390;2023-05-23T01:24:09;20.77;;;9.27;;
4694;SDS011;2361;49.540;8.390;2023-05-23T01:26:59;15.60;;;8.00;;
4694;SDS011;2361;49.540;8.390;2023-05-23T01:29:42;18.73;;;10.17;;
4694;SDS011;2361;49.540;8.390;2023-05-23T01:32:12;19.80;;;10.37;;
4694;SDS011;2361;49.540;8.390;2023-05-23T01:34:41;25.60;;;11.13;;
4694;SDS011;2361;49.540;8.390;2023-05-23T01:37:09;18.00;;;9.60;;
4694;SDS011;2361;49.540;8.390;2023-05-23T01:39:39;21.03;;;11.20;;
4694;SDS011;2361;49.540;8.390;2023-05-23T01:42:07;21.33;;;11.60;;
4694;SDS011;2361;49.540;8.390;2023-05-23T01:44:34;19.50;;;9.20;;
4694;SDS011;2361;49.540;8.390;2023-05-23T01:47:04;23.80;;;11.97;;
4694;SDS011;2361;49.540;8.390;2023-05-23T01:49:34;21.47;;;10.50;;
4694;SDS011;2361;49.540;8.390;2023-05-23T01:52:02;18.80;;;9.80;;
4694;SDS011;2361;49.540;8.390;2023-05-23T01:54:31;18.13;;;9.20;;
4694;SDS011;2361;49.540;8.390;2023-05-23T01:57:00;19.67;;;10.90;;
4694;SDS011;2361;49.540;8.390;2023-05-23T01:59:27;24.03;;;10.77;;
4694;SDS011;2361;49.540;8.390;2023-05-23T02:01:54;17.90;;;10.20;;
4694;SDS011;2361;49.540;8.390;2023-05-23T02:04:21;17.00;;;9.50;;
4694;SDS011;2361;49.540;8.390;2023-05-23T02:06:48;20.57;;;9.63;;
4694;SDS011;2361;49.540;8.390;2023-05-23T02:09:15;19.63;;;10.47;;
4694;SDS011;2361;49.540;8.390;2023-05-23T02:11:42;14.53;;;8.13;;
4694;SDS011;2361;49.540;8.390;2023-05-23T02:14:09;19.10;;;9.90;;
4694;SDS011;2361;49.540;8.390;2023-05-23T02:16:38;19.03;;;9.77;;
4694;SDS011;2361;49.540;8.390;2023-05-23T02:19:05;20.17;;;9.97;;
4694;SDS011;2361;49.540;8.390;2023-05-23T02:21:32;16.97;;;8.67;;
4694;SDS011;2361;49.540;8.390;2023-05-23T02:24:00;25.40;;;11.83;;
4694;SDS011;2361;49.540;8.390;2023-05-23T02:26:27;19.53;;;10.37;;
4694;SDS011;2361;49.540;8.390;2023-05-23T02:28:55;21.17;;;10.57;;
4694;SDS011;2361;49.540;8.390;2023-05-23T02:31:22;23.27;;;11.87;;
4694;SDS011;2361;49.540;8.390;2023-05-23T02:33:49;22.67;;;10.13;;
4694;SDS011;2361;49.540;8.390;2023-05-23T02:36:16;18.90;;;9.57;;
4694;SDS011;2361;49.540;8.390;2023-05-23T02:38:43;26.90;;;11.57;;
4694;SDS011;2361;49.540;8.390;2023-05-23T02:41:10;19.10;;;9.67;;
4694;SDS011;2361;49.540;8.390;2023-05-23T02:43:37;18.57;;;9.80;;
4694;SDS011;2361;49.540;8.390;2023-05-23T02:46:04;14.60;;;9.27;;
4694;SDS011;2361;49.540;8.390;2023-05-23T02:48:31;19.33;;;10.10;;
4694;SDS011;2361;49.540;8.390;2023-05-23T02:50:58;26.77;;;11.67;;
4694;SDS011;2361;49.540;8.390;2023-05-23T02:53:25;17.10;;;8.83;;
4694;SDS011;2361;49.540;8.390;2023-05-23T02:55:52;21.40;;;10.67;;
4694;SDS011;2361;49.540;8.390;2023-05-23T02:58:19;15.80;;;7.27;;
4694;SDS011;2361;49.540;8.390;2023-05-23T03:00:46;18.40;;;9.10;;
4694;SDS011;2361;49.540;8.390;2023-05-23T03:03:13;12.13;;;7.87;;
4694;SDS011;2361;49.540;8.390;2023-05-23T03:05:42;19.57;;;10.20;;
4694;SDS011;2361;49.540;8.390;2023-05-23T03:08:09;18.67;;;10.10;;
4694;SDS011;2361;49.540;8.390;2023-05-23T03:10:36;13.87;;;8.80;;
4694;SDS011;2361;49.540;8.390;2023-05-23T03:13:03;19.07;;;10.20;;
4694;SDS011;2361;49.540;8.390;2023-05-23T03:15:30;18.37;;;10.43;;
4694;SDS011;2361;49.540;8.390;2023-05-23T03:17:57;15.53;;;8.97;;
4694;SDS011;2361;49.540;8.390;2023-05-23T03:20:24;19.87;;;10.37;;
4694;SDS011;2361;49.540;8.390;2023-05-23T03:22:51;17.17;;;8.30;;
4694;SDS011;2361;49.540;8.390;2023-05-23T03:25:18;22.00;;;8.30;;
4694;SDS011;2361;49.540;8.390;2023-05-23T03:27:45;18.63;;;10.60;;
4694;SDS011;2361;49.540;8.390;2023-05-23T03:30:12;16.80;;;9.00;;
4694;SDS011;2361;49.540;8.390;2023-05-23T03:32:42;16.00;;;7.57;;
4694;SDS011;2361;49.540;8.390;2023-05-23T03:35:12;18.53;;;10.57;;
4694;SDS011;2361;49.540;8.390;2023-05-23T03:37:42;13.03;;;8.07;;
4694;SDS011;2361;49.540;8.390;2023-05-23T03:40:10;20.23;;;10.80;;
4694;SDS011;2361;49.540;8.390;2023-05-23T03:42:40;21.13;;;12.10;;
4694;SDS011;2361;49.540;8.390;2023-05-23T03:45:07;27.83;;;11.73;;
4694;SDS011;2361;49.540;8.390;2023-05-23T03:47:34;19.53;;;10.60;;
4694;SDS011;2361;49.540;8.390;2023-05-23T03:50:04;16.37;;;9.60;;
4694;SDS011;2361;49.540;8.390;2023-05-23T03:52:32;18.80;;;10.60;;
4694;SDS011;2361;49.540;8.390;2023-05-23T03:54:59;23.23;;;11.87;;
4694;SDS011;2361;49.540;8.390;2023-05-23T03:57:29;11.37;;;6.47;;
4694;SDS011;2361;49.540;8.390;2023-05-23T03:59:59;15.43;;;9.00;;
4694;SDS011;2361;49.540;8.390;2023-05-23T04:02:38;18.07;;;9.37;;
4694;SDS011;2361;49.540;8.390;2023-05-23T04:05:08;14.87;;;8.37;;
4694;SDS011;2361;49.540;8.390;2023-05-23T04:07:35;15.53;;;9.57;;
4694;SDS011;2361;49.540;8.390;2023-05-23T04:10:03;12.40;;;7.90;;
4694;SDS011;2361;49.540;8.390;2023-05-23T04:12:31;21.30;;;10.87;;
4694;SDS011;2361;49.540;8.390;2023-05-23T04:14:58;18.00;;;9.27;;
4694;SDS011;2361;49.540;8.390;2023-05-23T04:17:25;21.77;;;10.73;;
4694;SDS011;2361;49.540;8.390;2023-05-23T04:19:56;16.77;;;8.47;;
4694;SDS011;2361;49.540;8.390;2023-05-23T04:22:23;19.17;;;9.97;;
4694;SDS011;2361;49.540;8.390;2023-05-23T04:24:50;17.10;;;9.97;;
4694;SDS011;2361;49.540;8.390;2023-05-23T04:27:17;15.27;;;8.47;;
4694;SDS011;2361;49.540;8.390;2023-05-23T04:29:45;16.83;;;8.77;;
4694;SDS011;2361;49.540;8.390;2023-05-23T04:32:12;11.73;;;7.70;;
4694;SDS011;2361;49.540;8.390;2023-05-23T04:34:39;20.20;;;8.03;;
4694;SDS011;2361;49.540;8.390;2023-05-23T04:37:07;22.07;;;10.10;;
4694;SDS011;2361;49.540;8.390;2023-05-23T04:39:34;14.60;;;9.17;;
4694;SDS011;2361;49.540;8.390;2023-05-23T04:42:01;17.00;;;9.50;;
4694;SDS011;2361;49.540;8.390;2023-05-23T04:44:28;13.83;;;8.70;;
4694;SDS011;2361;49.540;8.390;2023-05-23T04:46:55;15.83;;;9.20;;
4694;SDS011;2361;49.540;8.390;2023-05-23T04:49:22;19.77;;;10.97;;
4694;SDS011;2361;49.540;8.390;2023-05-23T04:51:50;13.27;;;7.87;;
4694;SDS011;2361;49.540;8.390;2023-05-23T04:54:17;17.83;;;9.57;;
4694;SDS011;2361;49.540;8.390;2023-05-23T04:56:44;14.00;;;8.87;;
4694;SDS011;2361;49.540;8.390;2023-05-23T04:59:11;12.77;;;7.70;;
4694;SDS011;2361;49.540;8.390;2023-05-23T05:01:38;12.90;;;8.10;;
4694;SDS011;2361;49.540;8.390;2023-05-23T05:04:05;14.60;;;9.30;;
4694;SDS011;2361;49.540;8.390;2023-05-23T05:06:32;11.60;;;8.00;;
4694;SDS011;2361;49.540;8.390;2023-05-23T05:08:59;14.50;;;8.90;;
4694;SDS011;2361;49.540;8.390;2023-05-23T05:11:26;14.50;;;8.47;;
4694;SDS011;2361;49.540;8.390;2023-05-23T05:13:53;13.53;;;7.77;;
4694;SDS011;2361;49.540;8.390;2023-05-23T05:16:20;11.27;;;6.80;;
4694;SDS011;2361;49.540;8.390;2023-05-23T05:18:47;11.33;;;6.70;;
4694;SDS011;2361;49.540;8.390;2023-05-23T05:21:14;14.20;;;8.87;;
4694;SDS011;2361;49.540;8.390;2023-05-23T05:23:41;13.37;;;8.40;;
4694;SDS011;2361;49.540;8.390;2023-05-23T05:26:08;11.47;;;6.60;;
4694;SDS011;2361;49.540;8.390;2023-05-23T05:28:35;16.27;;;11.07;;
4694;SDS011;2361;49.540;8.390;2023-05-23T05:31:03;13.10;;;7.77;;
4694;SDS011;2361;49.540;8.390;2023-05-23T05:33:30;17.33;;;9.83;;
4694;SDS011;2361;49.540;8.390;2023-05-23T05:36:02;13.60;;;7.97;;
4694;SDS011;2361;49.540;8.390;2023-05-23T05:38:31;10.70;;;5.77;;
4694;SDS011;2361;49.540;8.390;2023-05-23T05:40:58;16.23;;;9.27;;
4694;SDS011;2361;49.540;8.390;2023-05-23T05:43:25;12.87;;;8.20;;
4694;SDS011;2361;49.540;8.390;2023-05-23T05:45:52;14.30;;;7.70;;
4694;SDS011;2361;49.540;8.390;2023-05-23T05:48:19;9.80;;;5.97;;
4694;SDS011;2361;49.540;8.390;2023-05-23T05:50:46;11.43;;;6.90;;
4694;SDS011;2361;49.540;8.390;2023-05-23T05:53:13;12.17;;;7.67;;
4694;SDS011;2361;49.540;8.390;2023-05-23T05:55:40;13.10;;;7.17;;
4694;SDS011;2361;49.540;8.390;2023-05-23T05:58:08;15.27;;;8.73;;
4694;SDS011;2361;49.540;8.390;2023-05-23T06:00:34;12.50;;;8.37;;
4694;SDS011;2361;49.540;8.390;2023-05-23T06:03:07;14.37;;;8.73;;
4694;SDS011;2361;49.540;8.390;2023-05-23T06:05:35;13.30;;;8.90;;
4694;SDS011;2361;49.540;8.390;2023-05-23T06:08:04;17.40;;;9.73;;
4694;SDS011;2361;49.540;8.390;2023-05-23T06:10:32;8.80;;;6.10;;
4694;SDS011;2361;49.540;8.390;2023-05-23T06:12:59;12.50;;;6.77;;
4694;SDS011;2361;49.540;8.390;2023-05-23T06:15:26;16.27;;;9.50;;
4694;SDS011;2361;49.540;8.390;2023-05-23T06:17:53;13.00;;;7.03;;
4694;SDS011;2361;49.540;8.390;2023-05-23T06:20:20;12.40;;;8.20;;
4694;SDS011;2361;49.540;8.390;2023-05-23T06:22:47;12.87;;;7.90;;
4694;SDS011;2361;49.540;8.390;2023-05-23T06:25:14;16.53;;;10.33;;
4694;SDS011;2361;49.540;8.390;2023-05-23T06:27:41;16.07;;;10.27;;
4694;SDS011;2361;49.540;8.390;2023-05-23T06:30:10;15.80;;;9.53;;
4694;SDS011;2361;49.540;8.390;2023-05-23T06:32:38;15.30;;;11.43;;
4694;SDS011;2361;49.540;8.390;2023-05-23T06:35:06;14.27;;;7.97;;
4694;SDS011;2361;49.540;8.390;2023-05-23T06:37:34;14.27;;;8.90;;
4694;SDS011;2361;49.540;8.390;2023-05-23T06:40:01;13.80;;;8.43;;
4694;SDS011;2361;49.540;8.390;2023-05-23T06:42:28;15.23;;;10.77;;
4694;SDS011;2361;49.540;8.390;2023-05-23T06:44:55;15.17;;;10.10;;
4694;SDS011;2361;49.540;8.390;2023-05-23T06:47:22;14.63;;;9.07;;
4694;SDS011;2361;49.540;8.390;2023-05-23T06:49:49;13.80;;;9.90;;
4694;SDS011;2361;49.540;8.390;2023-05-23T06:52:16;11.10;;;7.17;;
4694;SDS011;2361;49.540;8.390;2023-05-23T06:54:43;15.07;;;8.97;;
4694;SDS011;2361;49.540;8.390;2023-05-23T06:57:10;10.87;;;7.77;;
4694;SDS011;2361;49.540;8.390;2023-05-23T06:59:37;11.20;;;6.60;;
4694;SDS011;2361;49.540;8.390;2023-05-23T07:02:04;10.00;;;7.10;;
4694;SDS011;2361;49.540;8.390;2023-05-23T07:04:31;8.77;;;5.63;;
4694;SDS011;2361;49.540;8.390;2023-05-23T07:06:58;11.10;;;8.00;;
4694;SDS011;2361;49.540;8.390;2023-05-23T07:09:25;13.47;;;7.60;;
4694;SDS011;2361;49.540;8.390;2023-05-23T07:11:52;10.57;;;6.60;;
4694;SDS011;2361;49.540;8.390;2023-05-23T07:14:19;9.50;;;6.37;;
4694;SDS011;2361;49.540;8.390;2023-05-23T07:16:46;10.43;;;5.90;;
4694;SDS011;2361;49.540;8.390;2023-05-23T07:19:13;10.10;;;5.07;;
4694;SDS011;2361;49.540;8.390;2023-05-23T07:21:40;6.87;;;4.80;;
4694;SDS011;2361;49.540;8.390;2023-05-23T07:24:07;7.87;;;5.40;;
4694;SDS011;2361;49.540;8.390;2023-05-23T07:26:34;8.40;;;5.80;;
4694;SDS011;2361;49.540;8.390;2023-05-23T07:29:01;7.73;;;5.00;;
4694;SDS011;2361;49.540;8.390;2023-05-23T07:31:28;7.70;;;6.13;;
4694;SDS011;2361;49.540;8.390;2023-05-23T07:33:55;9.30;;;6.70;;
4694;SDS011;2361;49.540;8.390;2023-05-23T07:36:22;5.47;;;4.70;;
4694;SDS011;2361;49.540;8.390;2023-05-23T07:38:49;6.27;;;5.00;;
4694;SDS011;2361;49.540;8.390;2023-05-23T07:41:18;5.50;;;4.57;;
4694;SDS011;2361;49.540;8.390;2023-05-23T07:43:45;5.50;;;3.93;;
4694;SDS011;2361;49.540;8.390;2023-05-23T07:46:12;5.33;;;4.83;;
4694;SDS011;2361;49.540;8.390;2023-05-23T07:48:39;5.47;;;5.07;;
4694;SDS011;2361;49.540;8.390;2023-05-23T07:51:06;4.20;;;3.90;;
4694;SDS011;2361;49.540;8.390;2023-05-23T07:53:33;5.00;;;4.30;;
4694;SDS011;2361;49.540;8.390;2023-05-23T07:56:05;5.77;;;3.37;;
4694;SDS011;2361;49.540;8.390;2023-05-23T07:58:32;3.53;;;3.23;;
4694;SDS011;2361;49.540;8.390;2023-05-23T08:00:59;3.93;;;3.60;;
4694;SDS011;2361;49.540;8.390;2023-05-23T08:03:26;4.00;;;3.70;;
4694;SDS011;2361;49.540;8.390;2023-05-23T08:05:53;3.90;;;2.90;;
4694;SDS011;2361;49.540;8.390;2023-05-23T08:08:20;4.07;;;3.73;;
4694;SDS011;2361;49.540;8.390;2023-05-23T08:10:47;4.27;;;3.40;;
4694;SDS011;2361;49.540;8.390;2023-05-23T08:13:14;4.37;;;3.87;;
4694;SDS011;2361;49.540;8.390;2023-05-23T08:15:41;3.63;;;3.30;;
4694;SDS011;2361;49.540;8.390;2023-05-23T08:18:08;5.77;;;4.27;;
4694;SDS011;2361;49.540;8.390;2023-05-23T08:20:36;3.43;;;3.13;;
4694;SDS011;2361;49.540;8.390;2023-05-23T08:23:03;4.10;;;2.80;;
4694;SDS011;2361;49.540;8.390;2023-05-23T08:25:31;5.40;;;3.50;;
4694;SDS011;2361;49.540;8.390;2023-05-23T08:27:58;2.50;;;2.30;;
4694;SDS011;2361;49.540;8.390;2023-05-23T08:30:26;3.50;;;2.37;;
4694;SDS011;2361;49.540;8.390;2023-05-23T08:32:54;2.50;;;2.30;;
4694;SDS011;2361;49.540;8.390;2023-05-23T08:35:22;2.23;;;2.13;;
4694;SDS011;2361;49.540;8.390;2023-05-23T08:37:49;3.23;;;3.00;;
4694;SDS011;2361;49.540;8.390;2023-05-23T08:40:18;2.70;;;2.50;;
4694;SDS011;2361;49.540;8.390;2023-05-23T08:42:47;3.30;;;2.47;;
4694;SDS011;2361;49.540;8.390;2023-05-23T08:45:15;2.70;;;2.60;;
4694;SDS011;2361;49.540;8.390;2023-05-23T08:47:43;2.37;;;2.27;;
4694;SDS011;2361;49.540;8.390;2023-05-23T08:50:12;1.67;;;1.57;;
4694;SDS011;2361;49.540;8.390;2023-05-23T08:53:03;2.40;;;2.27;;
4694;SDS011;2361;49.540;8.390;2023-05-23T08:55:33;2.13;;;2.03;;
4694;SDS011;2361;49.540;8.390;2023-05-23T08:58:02;2.50;;;2.40;;
4694;SDS011;2361;49.540;8.390;2023-05-23T09:00:29;2.10;;;2.00;;
4694;SDS011;2361;49.540;8.390;2023-05-23T09:02:58;2.53;;;2.43;;
4694;SDS011;2361;49.540;8.390;2023-05-23T09:05:26;2.23;;;2.13;;
4694;SDS011;2361;49.540;8.390;2023-05-23T09:07:53;2.77;;;2.67;;
4694;SDS011;2361;49.540;8.390;2023-05-23T09:10:20;2.60;;;2.40;;
4694;SDS011;2361;49.540;8.390;2023-05-23T09:12:47;2.27;;;2.13;;
4694;SDS011;2361;49.540;8.390;2023-05-23T09:15:15;1.60;;;1.60;;
4694;SDS011;2361;49.540;8.390;2023-05-23T09:17:43;1.60;;;1.50;;
4694;SDS011;2361;49.540;8.390;2023-05-23T09:20:14;1.93;;;1.83;;
4694;SDS011;2361;49.540;8.390;2023-05-23T09:22:46;2.67;;;2.53;;
4694;SDS011;2361;49.540;8.390;2023-05-23T09:25:14;2.87;;;2.53;;
4694;SDS011;2361;49.540;8.390;2023-05-23T09:27:41;2.33;;;2.23;;
4694;SDS011;2361;49.540;8.390;2023-05-23T09:30:12;2.23;;;2.13;;
4694;SDS011;2361;49.540;8.390;2023-05-23T09:32:40;2.80;;;2.60;;
4694;SDS011;2361;49.540;8.390;2023-05-23T09:35:07;1.60;;;1.50;;
4694;SDS011;2361;49.540;8.390;2023-05-23T09:37:41;1.33;;;1.30;;
4694;SDS011;2361;49.540;8.390;2023-05-23T09:40:12;1.90;;;1.80;;
4694;SDS011;2361;49.540;8.390;2023-05-23T09:42:41;2.80;;;2.60;;
4694;SDS011;2361;49.540;8.390;2023-05-23T09:45:10;2.10;;;1.83;;
4694;SDS011;2361;49.540;8.390;2023-05-23T09:47:38;2.43;;;2.33;;
4694;SDS011;2361;49.540;8.390;2023-05-23T09:50:06;2.40;;;2.20;;
4694;SDS011;2361;49.540;8.390;2023-05-23T09:52:36;3.30;;;3.00;;
4694;SDS011;2361;49.540;8.390;2023-05-23T09:55:04;2.30;;;2.10;;
4694;SDS011;2361;49.540;8.390;2023-05-23T09:57:36;1.93;;;1.73;;
4694;SDS011;2361;49.540;8.390;2023-05-23T10:00:07;2.63;;;2.43;;
4694;SDS011;2361;49.540;8.390;2023-05-23T10:02:57;2.90;;;2.70;;
4694;SDS011;2361;49.540;8.390;2023-05-23T10:05:45;2.50;;;2.30;;
4694;SDS011;2361;49.540;8.390;2023-05-23T10:13:42;5.20;;;2.50;;
4694;SDS011;2361;49.540;8.390;2023-05-23T10:19:02;2.77;;;2.50;;
4694;SDS011;2361;49.540;8.390;2023-05-23T10:21:39;3.00;;;2.80;;
4694;SDS011;2361;49.540;8.390;2023-05-23T10:24:12;2.67;;;2.43;;
4694;SDS011;2361;49.540;8.390;2023-05-23T10:26:39;3.13;;;2.83;;
4694;SDS011;2361;49.540;8.390;2023-05-23T10:29:08;2.13;;;1.93;;
4694;SDS011;2361;49.540;8.390;2023-05-23T10:31:35;2.27;;;2.17;;
4694;SDS011;2361;49.540;8.390;2023-05-23T10:37:03;3.37;;;2.90;;
4694;SDS011;2361;49.540;8.390;2023-05-23T10:47:47;3.03;;;2.83;;
4694;SDS011;2361;49.540;8.390;2023-05-23T10:50:31;3.23;;;2.93;;
4694;SDS011;2361;49.540;8.390;2023-05-23T10:53:04;2.27;;;2.10;;
4694;SDS011;2361;49.540;8.390;2023-05-23T10:55:32;2.20;;;2.07;;
4694;SDS011;2361;49.540;8.390;2023-05-23T10:58:19;3.20;;;1.90;;
4694;SDS011;2361;49.540;8.390;2023-05-23T11:01:21;2.67;;;2.47;;
4694;SDS011;2361;49.540;8.390;2023-05-23T11:06:59;2.20;;;2.03;;
4694;SDS011;2361;49.540;8.390;2023-05-23T11:09:04;3.53;;;3.23;;
4694;SDS011;2361;49.540;8.390;2023-05-23T11:14:30;2.80;;;2.27;;
4694;SDS011;2361;49.540;8.390;2023-05-23T11:16:58;2.07;;;1.90;;
4694;SDS011;2361;49.540;8.390;2023-05-23T11:19:27;2.30;;;2.13;;
4694;SDS011;2361;49.540;8.390;2023-05-23T11:21:58;3.20;;;2.73;;
4694;SDS011;2361;49.540;8.390;2023-05-23T11:27:32;3.73;;;3.37;;
4694;SDS011;2361;49.540;8.390;2023-05-23T11:30:07;3.60;;;3.30;;
4694;SDS011;2361;49.540;8.390;2023-05-23T11:32:49;6.57;;;4.10;;
4694;SDS011;2361;49.540;8.390;2023-05-23T11:35:18;3.60;;;2.80;;
4694;SDS011;2361;49.540;8.390;2023-05-23T11:37:46;2.77;;;2.60;;
4694;SDS011;2361;49.540;8.390;2023-05-23T11:40:30;3.97;;;3.50;;
4694;SDS011;2361;49.540;8.390;2023-05-23T11:43:07;4.53;;;4.07;;
4694;SDS011;2361;49.540;8.390;2023-05-23T11:45:38;1.47;;;1.37;;
4694;SDS011;2361;49.540;8.390;2023-05-23T11:48:09;4.30;;;3.60;;
4694;SDS011;2361;49.540;8.390;2023-05-23T11:50:43;5.40;;;4.30;;
4694;SDS011;2361;49.540;8.390;2023-05-23T11:53:15;4.13;;;3.60;;
4694;SDS011;2361;49.540;8.390;2023-05-23T11:55:50;5.60;;;4.40;;
4694;SDS011;2361;49.540;8.390;2023-05-23T11:58:27;4.97;;;4.17;;
4694;SDS011;2361;49.540;8.390;2023-05-23T12:01:02;3.07;;;2.70;;
4694;SDS011;2361;49.540;8.390;2023-05-23T12:03:43;4.40;;;3.70;;
4694;SDS011;2361;49.540;8.390;2023-05-23T12:06:15;1.53;;;1.43;;
4694;SDS011;2361;49.540;8.390;2023-05-23T12:08:45;2.70;;;1.90;;
4694;SDS011;2361;49.540;8.390;2023-05-23T12:11:13;1.53;;;1.33;;
4694;SDS011;2361;49.540;8.390;2023-05-23T12:13:40;4.10;;;2.70;;
4694;SDS011;2361;49.540;8.390;2023-05-23T12:16:07;6.93;;;4.73;;
4694;SDS011;2361;49.540;8.390;2023-05-23T12:18:36;4.23;;;3.83;;
4694;SDS011;2361;49.540;8.390;2023-05-23T12:21:04;3.83;;;3.20;;
4694;SDS011;2361;49.540;8.390;2023-05-23T12:23:33;4.33;;;2.60;;
4694;SDS011;2361;49.540;8.390;2023-05-23T12:26:04;2.57;;;2.37;;
4694;SDS011;2361;49.540;8.390;2023-05-23T12:28:37;2.77;;;2.50;;
4694;SDS011;2361;49.540;8.390;2023-05-23T12:31:20;7.87;;;5.23;;
4694;SDS011;2361;49.540;8.390;2023-05-23T12:33:48;7.37;;;5.17;;
4694;SDS011;2361;49.540;8.390;2023-05-23T12:36:22;5.13;;;3.30;;
4694;SDS011;2361;49.540;8.390;2023-05-23T12:38:51;6.00;;;4.70;;
4694;SDS011;2361;49.540;8.390;2023-05-23T12:41:19;6.43;;;4.40;;
4694;SDS011;2361;49.540;8.390;2023-05-23T12:43:51;7.47;;;4.87;;
4694;SDS011;2361;49.540;8.390;2023-05-23T12:46:20;7.23;;;6.33;;
4694;SDS011;2361;49.540;8.390;2023-05-23T12:48:48;8.17;;;7.20;;
4694;SDS011;2361;49.540;8.390;2023-05-23T12:51:15;13.50;;;7.20;;
4694;SDS011;2361;49.540;8.390;2023-05-23T12:53:43;8.20;;;5.63;;
4694;SDS011;2361;49.540;8.390;2023-05-23T12:56:10;4.47;;;2.67;;
4694;SDS011;2361;49.540;8.390;2023-05-23T12:58:37;11.87;;;8.10;;
4694;SDS011;2361;49.540;8.390;2023-05-23T13:01:04;8.50;;;6.73;;
4694;SDS011;2361;49.540;8.390;2023-05-23T13:03:31;8.93;;;6.63;;
4694;SDS011;2361;49.540;8.390;2023-05-23T13:05:59;9.70;;;7.43;;
4694;SDS011;2361;49.540;8.390;2023-05-23T13:08:27;9.37;;;6.77;;
4694;SDS011;2361;49.540;8.390;2023-05-23T13:10:54;8.07;;;5.57;;
4694;SDS011;2361;49.540;8.390;2023-05-23T13:13:27;5.23;;;3.70;;
4694;SDS011;2361;49.540;8.390;2023-05-23T13:15:55;6.50;;;4.73;;
4694;SDS011;2361;49.540;8.390;2023-05-23T13:18:22;8.50;;;5.10;;
4694;SDS011;2361;49.540;8.390;2023-05-23T13:20:50;8.23;;;6.53;;
4694;SDS011;2361;49.540;8.390;2023-05-23T13:23:17;6.47;;;5.07;;
4694;SDS011;2361;49.540;8.390;2023-05-23T13:25:44;7.40;;;6.30;;
4694;SDS011;2361;49.540;8.390;2023-05-23T13:28:11;7.40;;;5.43;;
4694;SDS011;2361;49.540;8.390;2023-05-23T13:30:38;13.13;;;3.87;;
4694;SDS011;2361;49.540;8.390;2023-05-23T13:33:05;6.23;;;5.30;;
4694;SDS011;2361;49.540;8.390;2023-05-23T13:35:32;4.10;;;3.80;;
4694;SDS011;2361;49.540;8.390;2023-05-23T13:37:59;6.13;;;4.00;;
4694;SDS011;2361;49.540;8.390;2023-05-23T13:40:26;4.00;;;3.70;;
4694;SDS011;2361;49.540;8.390;2023-05-23T13:42:53;5.13;;;4.63;;
4694;SDS011;2361;49.540;8.390;2023-05-23T13:45:21;4.27;;;3.97;;
4694;SDS011;2361;49.540;8.390;2023-05-23T13:47:48;5.97;;;5.37;;
4694;SDS011;2361;49.540;8.390;2023-05-23T13:50:15;4.40;;;4.00;;
4694;SDS011;2361;49.540;8.390;2023-05-23T13:52:43;5.47;;;4.97;;
4694;SDS011;2361;49.540;8.390;2023-05-23T13:55:14;5.20;;;4.80;;
4694;SDS011;2361;49.540;8.390;2023-05-23T13:57:42;3.23;;;2.10;;
4694;SDS011;2361;49.540;8.390;2023-05-23T14:00:09;4.33;;;3.93;;
4694;SDS011;2361;49.540;8.390;2023-05-23T14:02:37;3.27;;;3.07;;
4694;SDS011;2361;49.540;8.390;2023-05-23T14:05:04;3.60;;;3.30;;
4694;SDS011;2361;49.540;8.390;2023-05-23T14:07:32;3.40;;;3.20;;
4694;SDS011;2361;49.540;8.390;2023-05-23T14:09:59;4.30;;;3.90;;
4694;SDS011;2361;49.540;8.390;2023-05-23T14:12:26;4.20;;;3.80;;
4694;SDS011;2361;49.540;8.390;2023-05-23T14:14:53;3.50;;;3.20;;
4694;SDS011;2361;49.540;8.390;2023-05-23T14:17:20;5.60;;;4.00;;
4694;SDS011;2361;49.540;8.390;2023-05-23T14:19:47;4.77;;;3.53;;
4694;SDS011;2361;49.540;8.390;2023-05-23T14:22:14;2.97;;;2.77;;
4694;SDS011;2361;49.540;8.390;2023-05-23T14:24:41;4.07;;;2.73;;
4694;SDS011;2361;49.540;8.390;2023-05-23T14:27:09;2.57;;;2.20;;
4694;SDS011;2361;49.540;8.390;2023-05-23T14:29:37;2.83;;;2.03;;
4694;SDS011;2361;49.540;8.390;2023-05-23T14:32:04;5.33;;;4.27;;
4694;SDS011;2361;49.540;8.390;2023-05-23T14:34:32;8.10;;;6.73;;
4694;SDS011;2361;49.540;8.390;2023-05-23T14:37:02;8.07;;;5.80;;
4694;SDS011;2361;49.540;8.390;2023-05-23T14:39:28;6.90;;;4.77;;
4694;SDS011;2361;49.540;8.390;2023-05-23T14:41:57;7.47;;;5.37;;
4694;SDS011;2361;49.540;8.390;2023-05-23T14:44:24;4.10;;;3.70;;
4694;SDS011;2361;49.540;8.390;2023-05-23T14:46:51;5.27;;;4.03;;
4694;SDS011;2361;49.540;8.390;2023-05-23T14:49:17;6.77;;;4.07;;
4694;SDS011;2361;49.540;8.390;2023-05-23T14:51:44;3.37;;;2.83;;
4694;SDS011;2361;49.540;8.390;2023-05-23T14:54:17;7.10;;;6.07;;
4694;SDS011;2361;49.540;8.390;2023-05-23T14:56:44;4.67;;;3.87;;
4694;SDS011;2361;49.540;8.390;2023-05-23T14:59:11;39.10;;;18.57;;
4694;SDS011;2361;49.540;8.390;2023-05-23T15:01:38;6.80;;;5.43;;
4694;SDS011;2361;49.540;8.390;2023-05-23T15:04:06;8.60;;;5.67;;
4694;SDS011;2361;49.540;8.390;2023-05-23T15:06:37;7.60;;;5.60;;
4694;SDS011;2361;49.540;8.390;2023-05-23T15:09:05;6.50;;;4.60;;
4694;SDS011;2361;49.540;8.390;2023-05-23T15:11:32;6.10;;;3.90;;
4694;SDS011;2361;49.540;8.390;2023-05-23T15:14:05;8.13;;;6.27;;
4694;SDS011;2361;49.540;8.390;2023-05-23T15:16:32;7.33;;;5.50;;
4694;SDS011;2361;49.540;8.390;2023-05-23T15:19:02;9.00;;;5.50;;
4694;SDS011;2361;49.540;8.390;2023-05-23T15:21:30;7.33;;;6.57;;
4694;SDS011;2361;49.540;8.390;2023-05-23T15:23:57;7.10;;;5.90;;
4694;SDS011;2361;49.540;8.390;2023-05-23T15:26:25;8.23;;;5.80;;
4694;SDS011;2361;49.540;8.390;2023-05-23T15:28:52;9.80;;;6.63;;
4694;SDS011;2361;49.540;8.390;2023-05-23T15:31:19;6.10;;;4.67;;
4694;SDS011;2361;49.540;8.390;2023-05-23T15:33:46;7.00;;;4.20;;
4694;SDS011;2361;49.540;8.390;2023-05-23T15:36:13;4.23;;;3.30;;
4694;SDS011;2361;49.540;8.390;2023-05-23T15:38:40;9.13;;;5.47;;
4694;SDS011;2361;49.540;8.390;2023-05-23T15:41:09;7.30;;;5.40;;
4694;SDS011;2361;49.540;8.390;2023-05-23T15:43:36;11.30;;;7.30;;
4694;SDS011;2361;49.540;8.390;2023-05-23T15:46:03;9.33;;;5.50;;
4694;SDS011;2361;49.540;8.390;2023-05-23T15:48:30;9.20;;;6.73;;